createdAt,value
2023-02-28T00:00:16.210Z,6.80
2023-02-28T00:02:43.937Z,6.75
2023-02-28T00:05:12.135Z,6.60
2023-02-28T00:07:39.299Z,6.40
2023-02-28T00:10:08.209Z,6.50
2023-02-28T00:12:35.945Z,6.32
2023-02-28T00:15:03.404Z,6.32
2023-02-28T00:17:30.547Z,6.07
2023-02-28T00:19:57.991Z,6.28
2023-02-28T00:22:25.126Z,6.50
2023-02-28T00:24:52.313Z,6.18
2023-02-28T00:27:19.471Z,6.63
2023-02-28T00:29:48.675Z,6.50
2023-02-28T00:32:16.073Z,6.85
2023-02-28T00:34:43.319Z,6.38
2023-02-28T00:37:10.839Z,6.22
2023-02-28T00:39:38.339Z,7.35
2023-02-28T00:42:05.497Z,6.93
2023-02-28T00:44:32.689Z,6.97
2023-02-28T00:47:00.047Z,6.55
2023-02-28T00:49:27.854Z,5.95
2023-02-28T00:51:55.562Z,5.88
2023-02-28T00:54:22.898Z,6.53
2023-02-28T00:56:50.140Z,5.10
2023-02-28T00:59:17.524Z,5.45
2023-02-28T01:01:45.172Z,5.00
2023-02-28T01:04:12.425Z,5.10
2023-02-28T01:06:39.658Z,4.40
2023-02-28T01:09:07.382Z,5.10
2023-02-28T01:11:34.616Z,4.95
2023-02-28T01:14:01.752Z,5.85
2023-02-28T01:16:29.074Z,5.30
2023-02-28T01:18:56.205Z,4.65
2023-02-28T01:21:23.432Z,4.60
2023-02-28T01:23:50.720Z,4.72
2023-02-28T01:26:21.544Z,5.13
2023-02-28T01:28:48.834Z,4.65
2023-02-28T01:31:16.185Z,5.05
2023-02-28T01:33:43.414Z,4.97
2023-02-28T01:36:14.316Z,4.53
2023-02-28T01:38:41.530Z,4.90
2023-02-28T01:41:08.826Z,5.18
2023-02-28T01:43:45.217Z,5.57
2023-02-28T01:46:13.178Z,4.68
2023-02-28T01:48:42.452Z,4.18
2023-02-28T01:51:14.841Z,4.07
2023-02-28T01:53:52.786Z,4.72
2023-02-28T01:56:21.609Z,4.35
2023-02-28T01:58:49.421Z,4.80
2023-02-28T02:01:22.406Z,4.28
2023-02-28T02:03:56.115Z,4.15
2023-02-28T02:06:24.358Z,3.72
2023-02-28T02:08:51.776Z,3.53
2023-02-28T02:11:20.045Z,3.97
2023-02-28T02:13:47.209Z,3.90
2023-02-28T02:16:17.311Z,4.35
2023-02-28T02:19:03.407Z,3.97
2023-02-28T02:21:30.827Z,4.55
2023-02-28T02:24:17.172Z,4.18
2023-02-28T02:26:46.345Z,3.83
2023-02-28T02:29:18.913Z,3.55
2023-02-28T02:32:01.364Z,3.78
2023-02-28T02:34:35.786Z,3.55
2023-02-28T02:37:10.819Z,3.63
2023-02-28T02:39:47.275Z,3.65
2023-02-28T02:42:19.845Z,3.60
2023-02-28T02:44:55.938Z,3.92
2023-02-28T02:47:23.686Z,3.90
2023-02-28T02:49:51.513Z,4.43
2023-02-28T02:52:19.431Z,4.55
2023-02-28T02:54:47.465Z,4.22
2023-02-28T02:57:22.887Z,4.40
2023-02-28T02:59:50.339Z,3.42
2023-02-28T03:02:17.553Z,3.88
2023-02-28T03:04:45.717Z,3.85
2023-02-28T03:07:12.839Z,3.15
2023-02-28T03:09:40.031Z,3.00
2023-02-28T03:12:08.328Z,3.15
2023-02-28T03:14:41.607Z,3.37
2023-02-28T03:17:11.607Z,3.08
2023-02-28T03:19:47.337Z,3.27
2023-02-28T03:22:34.758Z,3.42
2023-02-28T03:25:01.895Z,3.27
2023-02-28T03:27:35.228Z,3.17
2023-02-28T03:30:06.370Z,3.15
2023-02-28T03:32:33.524Z,3.67
2023-02-28T03:35:06.991Z,3.50
2023-02-28T03:37:36.817Z,4.03
2023-02-28T03:40:09.659Z,3.17
2023-02-28T03:42:37.862Z,2.95
2023-02-28T03:45:11.029Z,3.00
2023-02-28T03:47:40.647Z,2.70
2023-02-28T03:50:11.125Z,3.53
2023-02-28T03:52:40.108Z,3.60
2023-02-28T03:55:10.167Z,4.10
2023-02-28T03:57:37.276Z,4.25
2023-02-28T04:00:06.909Z,3.60
2023-02-28T04:02:34.261Z,3.92
2023-02-28T04:05:02.052Z,3.25
2023-02-28T04:07:32.374Z,4.03
2023-02-28T04:09:59.527Z,3.58
2023-02-28T04:12:26.784Z,4.30
2023-02-28T04:14:53.979Z,3.67
2023-02-28T04:17:21.143Z,3.40
2023-02-28T04:19:48.353Z,3.53
2023-02-28T04:22:15.567Z,3.17
2023-02-28T04:24:42.772Z,3.85
2023-02-28T04:27:10.346Z,3.50
2023-02-28T04:29:37.647Z,3.63
2023-02-28T04:32:04.922Z,3.30
2023-02-28T04:34:32.437Z,3.80
2023-02-28T04:37:12.487Z,3.27
2023-02-28T04:39:40.823Z,3.90
2023-02-28T04:42:07.993Z,2.95
2023-02-28T04:44:35.228Z,3.33
2023-02-28T04:47:02.384Z,3.67
2023-02-28T04:49:29.545Z,3.55
2023-02-28T04:51:56.752Z,3.22
2023-02-28T04:54:23.962Z,3.42
2023-02-28T04:56:51.223Z,3.25
2023-02-28T04:59:18.555Z,3.30
2023-02-28T05:01:49.174Z,3.85
2023-02-28T05:04:16.418Z,3.88
2023-02-28T05:06:43.601Z,3.40
2023-02-28T05:09:12.592Z,3.25
2023-02-28T05:11:40.458Z,3.47
2023-02-28T05:14:08.685Z,3.22
2023-02-28T05:16:35.911Z,3.45
2023-02-28T05:19:03.165Z,3.20
2023-02-28T05:21:31.737Z,3.42
2023-02-28T05:24:00.994Z,3.65
2023-02-28T05:26:28.823Z,3.63
2023-02-28T05:28:56.508Z,3.08
2023-02-28T05:31:23.727Z,3.20
2023-02-28T05:33:50.890Z,3.72
2023-02-28T05:36:18.080Z,3.60
2023-02-28T05:38:45.243Z,3.63
2023-02-28T05:41:12.459Z,3.42
2023-02-28T05:43:39.721Z,3.13
2023-02-28T05:46:10.537Z,3.33
2023-02-28T05:48:37.962Z,3.70
2023-02-28T05:51:05.434Z,3.65
2023-02-28T05:53:32.636Z,4.18
2023-02-28T05:55:59.864Z,3.50
2023-02-28T05:58:30.245Z,4.93
2023-02-28T06:00:57.393Z,3.95
2023-02-28T06:03:24.580Z,4.07
2023-02-28T06:05:51.770Z,3.72
2023-02-28T06:08:19.442Z,4.18
2023-02-28T06:10:46.683Z,4.17
2023-02-28T06:13:13.924Z,4.50
2023-02-28T06:15:43.245Z,4.18
2023-02-28T06:18:10.741Z,3.60
2023-02-28T06:20:37.938Z,4.20
2023-02-28T06:23:05.160Z,4.25
2023-02-28T06:25:32.325Z,3.77
2023-02-28T06:27:59.603Z,3.63
2023-02-28T06:30:27.701Z,3.63
2023-02-28T06:32:55.423Z,3.92
2023-02-28T06:35:22.690Z,3.95
2023-02-28T06:37:49.933Z,4.43
2023-02-28T06:40:17.194Z,4.27
2023-02-28T06:42:44.550Z,3.92
2023-02-28T06:45:12.456Z,3.70
2023-02-28T06:47:40.215Z,3.70
2023-02-28T06:50:07.729Z,4.40
2023-02-28T06:52:37.194Z,3.80
2023-02-28T06:55:05.317Z,4.22
2023-02-28T06:57:32.629Z,3.83
2023-02-28T07:00:00.436Z,4.75
2023-02-28T07:02:27.942Z,4.18
2023-02-28T07:04:55.167Z,4.00
2023-02-28T07:07:22.513Z,4.13
2023-02-28T07:09:49.744Z,4.07
2023-02-28T07:12:17.033Z,3.40
2023-02-28T07:14:44.187Z,3.13
2023-02-28T07:17:13.148Z,3.50
2023-02-28T07:19:40.747Z,4.28
2023-02-28T07:22:08.145Z,3.58
2023-02-28T07:24:35.316Z,3.60
2023-02-28T07:27:02.583Z,3.65
2023-02-28T07:29:29.781Z,2.92
2023-02-28T07:31:56.996Z,3.45
2023-02-28T07:34:24.217Z,2.90
2023-02-28T07:36:54.578Z,3.60
2023-02-28T07:39:22.259Z,3.10
2023-02-28T07:41:49.558Z,3.33
2023-02-28T07:44:16.726Z,3.25
2023-02-28T07:46:43.956Z,4.28
2023-02-28T07:49:11.154Z,3.20
2023-02-28T07:51:38.407Z,3.13
2023-02-28T07:54:05.728Z,2.83
2023-02-28T07:56:33.079Z,3.22
2023-02-28T07:59:00.339Z,2.63
2023-02-28T08:01:27.728Z,2.70
2023-02-28T08:03:55.990Z,2.83
2023-02-28T08:06:23.917Z,2.70
2023-02-28T08:08:51.111Z,2.50
2023-02-28T08:11:18.349Z,2.55
2023-02-28T08:13:45.803Z,2.25
2023-02-28T08:16:15.371Z,1.83
2023-02-28T08:18:42.859Z,1.73
2023-02-28T08:21:10.609Z,9.18
2023-02-28T08:23:37.953Z,340.95
2023-02-28T08:26:05.289Z,307.65
2023-02-28T08:28:32.510Z,190.65
2023-02-28T08:31:00.020Z,111.53
2023-02-28T08:33:27.251Z,61.15
2023-02-28T08:35:57.632Z,50.10
2023-02-28T08:38:25.080Z,41.13
2023-02-28T08:40:52.220Z,16.30
2023-02-28T08:43:19.546Z,5.80
2023-02-28T08:45:46.761Z,3.63
2023-02-28T08:48:14.605Z,3.10
2023-02-28T08:50:41.775Z,1.80
2023-02-28T08:53:08.940Z,1.27
2023-02-28T08:55:36.141Z,1.08
2023-02-28T08:58:03.300Z,1.20
2023-02-28T09:00:30.560Z,1.00
2023-02-28T09:02:58.290Z,1.15
2023-02-28T09:05:25.487Z,1.17
2023-02-28T09:07:52.605Z,1.08
2023-02-28T09:10:19.833Z,0.90
2023-02-28T09:12:48.015Z,1.15
2023-02-28T09:15:15.241Z,1.53
2023-02-28T09:17:43.343Z,1.92
2023-02-28T09:20:11.998Z,1.80
2023-02-28T09:22:39.686Z,1.20
2023-02-28T09:25:07.006Z,1.45
2023-02-28T09:27:34.143Z,1.25
2023-02-28T09:30:01.308Z,2.75
2023-02-28T09:32:28.566Z,1.53
2023-02-28T09:34:55.819Z,1.38
2023-02-28T09:37:23.029Z,1.33
2023-02-28T09:39:50.168Z,1.10
2023-02-28T09:42:24.172Z,2.05
2023-02-28T09:44:51.361Z,1.20
2023-02-28T09:47:29.420Z,0.70
2023-02-28T09:49:56.606Z,1.33
2023-02-28T09:52:25.434Z,1.10
2023-02-28T09:54:52.642Z,1.23
2023-02-28T09:57:22.576Z,1.05
2023-02-28T10:00:11.409Z,1.00
2023-02-28T10:02:38.593Z,1.00
2023-02-28T10:05:13.702Z,1.20
2023-02-28T10:08:00.165Z,0.90
2023-02-28T10:10:31.835Z,1.50
2023-02-28T10:12:59.792Z,1.08
2023-02-28T10:15:27.604Z,0.90
2023-02-28T10:18:09.812Z,0.73
2023-02-28T10:20:39.108Z,0.90
2023-02-28T10:23:29.502Z,0.85
2023-02-28T10:26:03.451Z,0.77
2023-02-28T10:28:31.935Z,1.10
2023-02-28T10:30:59.602Z,0.88
2023-02-28T10:33:29.289Z,1.40
2023-02-28T10:35:56.656Z,1.05
2023-02-28T10:38:28.963Z,1.75
2023-02-28T10:41:16.041Z,1.33
2023-02-28T10:43:43.782Z,1.30
2023-02-28T10:46:10.998Z,1.52
2023-02-28T10:48:43.572Z,1.20
2023-02-28T10:51:12.143Z,1.33
2023-02-28T10:53:57.673Z,1.60
2023-02-28T10:56:27.150Z,2.00
2023-02-28T10:58:58.813Z,1.20
2023-02-28T11:01:32.475Z,1.70
2023-02-28T11:04:00.130Z,1.83
2023-02-28T11:06:27.392Z,5.88
2023-02-28T11:08:55.337Z,2.20
2023-02-28T11:11:22.897Z,0.90
2023-02-28T11:13:52.022Z,84.43
2023-02-28T11:16:19.298Z,52.50
2023-02-28T11:18:50.895Z,47.70
2023-02-28T11:21:19.028Z,3.60
2023-02-28T11:23:46.221Z,1.70
2023-02-28T11:26:13.457Z,1.15
2023-02-28T11:28:41.316Z,1.48
2023-02-28T11:31:08.564Z,1.60
2023-02-28T11:33:46.155Z,1.40
2023-02-28T11:36:14.890Z,1.08
2023-02-28T11:38:42.169Z,1.40
2023-02-28T11:41:09.316Z,1.10
2023-02-28T11:43:42.786Z,1.20
2023-02-28T11:46:19.091Z,1.13
2023-02-28T11:49:06.516Z,0.88
2023-02-28T11:51:37.082Z,1.00
2023-02-28T11:54:30.741Z,0.82
2023-02-28T11:57:03.583Z,0.88
2023-02-28T11:59:49.695Z,1.13
2023-02-28T12:02:22.975Z,0.80
2023-02-28T12:04:56.821Z,1.00
2023-02-28T12:07:40.609Z,1.02
2023-02-28T12:10:10.804Z,0.80
2023-02-28T12:12:47.210Z,1.08
2023-02-28T12:15:23.668Z,1.30
2023-02-28T12:17:54.060Z,1.30
2023-02-28T12:20:24.507Z,1.00
2023-02-28T12:23:00.873Z,1.20
2023-02-28T12:25:33.883Z,1.05
2023-02-28T12:28:01.012Z,1.40
2023-02-28T12:30:32.521Z,1.00
2023-02-28T12:33:07.519Z,1.02
2023-02-28T12:35:43.019Z,1.10
2023-02-28T12:38:18.705Z,1.03
2023-02-28T12:40:47.142Z,1.20
2023-02-28T12:43:14.752Z,1.40
2023-02-28T12:45:42.476Z,0.85
2023-02-28T12:48:11.762Z,1.00
2023-02-28T12:50:39.045Z,1.10
2023-02-28T12:53:15.472Z,1.00
2023-02-28T12:55:51.592Z,2.33
2023-02-28T12:58:41.798Z,1.05
2023-02-28T13:01:29.008Z,0.85
2023-02-28T13:03:56.594Z,0.80
2023-02-28T13:06:23.748Z,1.02
2023-02-28T13:09:03.019Z,0.90
2023-02-28T13:11:31.472Z,1.20
2023-02-28T13:14:05.355Z,1.10
2023-02-28T13:16:51.445Z,0.90
2023-02-28T13:19:19.358Z,1.05
2023-02-28T13:21:46.589Z,0.93
2023-02-28T13:24:14.631Z,0.90
2023-02-28T13:26:41.878Z,0.90
2023-02-28T13:29:11.917Z,1.30
2023-02-28T13:31:58.064Z,0.80
2023-02-28T13:34:25.226Z,0.70
2023-02-28T13:36:52.493Z,0.65
2023-02-28T13:39:39.143Z,0.80
2023-02-28T13:42:24.156Z,0.73
2023-02-28T13:45:06.344Z,0.80
2023-02-28T13:47:33.717Z,1.10
2023-02-28T13:50:17.913Z,0.90
2023-02-28T13:52:57.530Z,1.08
2023-02-28T13:55:26.464Z,1.20
2023-02-28T13:58:10.531Z,0.93
2023-02-28T14:00:46.092Z,1.08
2023-02-28T14:03:31.912Z,1.20
2023-02-28T14:06:12.358Z,1.70
2023-02-28T14:08:39.558Z,1.52
2023-02-28T14:11:07.673Z,1.70
2023-02-28T14:13:46.148Z,6.17
2023-02-28T14:16:17.961Z,10.27
2023-02-28T14:19:01.725Z,1.40
2023-02-28T14:21:29.977Z,1.80
2023-02-28T14:24:12.643Z,2.53
2023-02-28T14:26:56.413Z,4.43
2023-02-28T14:29:23.584Z,1.60
2023-02-28T14:31:59.975Z,2.30
2023-02-28T14:34:36.399Z,3.95
2023-02-28T14:37:04.110Z,8.48
2023-02-28T14:39:34.416Z,1.63
2023-02-28T14:42:05.652Z,0.90
2023-02-28T14:44:32.983Z,1.05
2023-02-28T14:47:07.703Z,1.50
2023-02-28T14:49:38.964Z,1.08
2023-02-28T14:52:14.965Z,1.50
2023-02-28T14:54:42.257Z,1.20
2023-02-28T14:57:22.633Z,0.80
2023-02-28T14:59:58.329Z,1.10
2023-02-28T15:02:26.321Z,2.30
2023-02-28T15:05:12.003Z,1.48
2023-02-28T15:07:39.257Z,1.83
2023-02-28T15:10:18.889Z,1.20
2023-02-28T15:12:59.265Z,1.65
2023-02-28T15:15:40.571Z,0.88
2023-02-28T15:18:17.973Z,1.10
2023-02-28T15:20:45.494Z,1.25
2023-02-28T15:23:12.741Z,1.90
2023-02-28T15:25:39.880Z,1.20
2023-02-28T15:28:07.133Z,1.33
2023-02-28T15:30:34.384Z,1.25
2023-02-28T15:33:04.660Z,1.10
2023-02-28T15:35:32.645Z,1.33
2023-02-28T15:37:59.826Z,1.08
2023-02-28T15:40:42.924Z,1.77
2023-02-28T15:43:16.909Z,1.85
2023-02-28T15:46:02.962Z,1.58
2023-02-28T15:48:30.664Z,1.48
2023-02-28T15:51:06.959Z,1.40
2023-02-28T15:53:35.319Z,1.33
2023-02-28T15:56:23.106Z,1.30
2023-02-28T15:58:50.318Z,1.10
2023-02-28T16:01:23.110Z,1.02
2023-02-28T16:03:50.944Z,1.08
2023-02-28T16:06:18.124Z,1.33
2023-02-28T16:08:46.233Z,1.55
2023-02-28T16:11:13.448Z,1.80
2023-02-28T16:13:40.641Z,1.20
2023-02-28T16:16:08.009Z,1.00
2023-02-28T16:18:35.147Z,1.08
2023-02-28T16:21:02.325Z,1.20
2023-02-28T16:23:29.576Z,1.00
2023-02-28T16:25:56.906Z,1.48
2023-02-28T16:28:30.869Z,1.40
2023-02-28T16:30:58.142Z,1.02
2023-02-28T16:33:25.392Z,1.60
2023-02-28T16:35:53.256Z,1.77
2023-02-28T16:38:20.652Z,2.10
2023-02-28T16:40:47.809Z,1.60
2023-02-28T16:43:19.978Z,1.55
2023-02-28T16:45:47.170Z,1.40
2023-02-28T16:48:15.181Z,1.20
2023-02-28T16:50:42.450Z,1.08
2023-02-28T16:53:09.600Z,1.30
2023-02-28T16:55:36.804Z,1.10
2023-02-28T16:58:04.042Z,1.40
2023-02-28T17:00:32.291Z,1.17
2023-02-28T17:03:00.346Z,1.30
2023-02-28T17:05:28.064Z,3.25
2023-02-28T17:07:55.197Z,2.60
2023-02-28T17:10:23.458Z,2.97
2023-02-28T17:12:50.676Z,3.03
2023-02-28T17:15:18.537Z,3.40
2023-02-28T17:17:45.804Z,4.97
2023-02-28T17:20:23.359Z,5.10
2023-02-28T17:22:51.095Z,4.13
2023-02-28T17:25:18.407Z,3.38
2023-02-28T17:27:45.614Z,2.40
2023-02-28T17:30:16.543Z,2.30
2023-02-28T17:32:43.772Z,2.30
2023-02-28T17:35:11.106Z,2.30
2023-02-28T17:37:38.369Z,2.65
2023-02-28T17:40:06.025Z,3.40
2023-02-28T17:42:33.221Z,2.78
2023-02-28T17:45:00.405Z,2.55
2023-02-28T17:47:27.610Z,2.00
2023-02-28T17:49:54.762Z,2.00
2023-02-28T17:52:23.179Z,1.70
2023-02-28T17:54:50.352Z,2.03
2023-02-28T17:57:18.406Z,1.70
2023-02-28T17:59:45.578Z,1.80
2023-02-28T18:02:16.282Z,1.50
2023-02-28T18:04:43.484Z,2.13
2023-02-28T18:07:11.136Z,1.90
2023-02-28T18:09:38.344Z,1.90
2023-02-28T18:12:05.650Z,1.80
2023-02-28T18:14:32.916Z,2.30
2023-02-28T18:17:00.160Z,1.98
2023-02-28T18:19:27.308Z,2.20
2023-02-28T18:21:55.354Z,2.75
2023-02-28T18:24:23.077Z,3.47
2023-02-28T18:26:51.442Z,10.75
2023-02-28T18:29:19.711Z,8.25
2023-02-28T18:31:47.179Z,7.63
2023-02-28T18:34:15.152Z,11.50
2023-02-28T18:36:42.432Z,13.48
2023-02-28T18:39:11.990Z,18.52
2023-02-28T18:41:39.534Z,22.20
2023-02-28T18:44:17.705Z,22.92
2023-02-28T18:46:46.592Z,16.27
2023-02-28T18:49:14.007Z,10.02
2023-02-28T18:51:45.058Z,7.45
2023-02-28T18:54:12.756Z,6.25
2023-02-28T18:56:39.981Z,6.32
2023-02-28T18:59:07.125Z,5.63
2023-02-28T19:01:34.650Z,5.47
2023-02-28T19:04:01.978Z,5.68
2023-02-28T19:06:32.426Z,5.05
2023-02-28T19:09:00.363Z,5.22
2023-02-28T19:11:27.722Z,7.43
2023-02-28T19:13:54.912Z,8.77
2023-02-28T19:16:22.379Z,7.80
2023-02-28T19:18:49.585Z,7.05
2023-02-28T19:21:17.427Z,9.15
2023-02-28T19:23:44.732Z,9.10
2023-02-28T19:26:13.494Z,8.52
2023-02-28T19:28:40.758Z,7.88
2023-02-28T19:31:17.873Z,8.02
2023-02-28T19:33:45.105Z,7.15
2023-02-28T19:36:12.683Z,7.35
2023-02-28T19:38:40.202Z,6.80
2023-02-28T19:41:08.453Z,6.88
2023-02-28T19:43:35.726Z,7.20
2023-02-28T19:46:02.976Z,7.47
2023-02-28T19:48:30.162Z,9.40
2023-02-28T19:50:58.349Z,10.07
2023-02-28T19:53:26.868Z,9.75
2023-02-28T19:55:54.817Z,9.52
2023-02-28T19:58:21.982Z,8.15
2023-02-28T20:00:49.336Z,8.93
2023-02-28T20:03:18.412Z,9.50
2023-02-28T20:05:45.997Z,10.20
2023-02-28T20:08:13.155Z,9.57
2023-02-28T20:10:40.399Z,8.17
2023-02-28T20:13:07.630Z,8.43
2023-02-28T20:15:34.828Z,7.77
2023-02-28T20:18:01.988Z,8.00
2023-02-28T20:20:29.150Z,8.27
2023-02-28T20:22:56.307Z,8.55
2023-02-28T20:25:23.570Z,7.68
2023-02-28T20:27:50.773Z,8.45
2023-02-28T20:30:18.065Z,7.60
2023-02-28T20:32:45.292Z,8.30
2023-02-28T20:35:12.536Z,6.80
2023-02-28T20:37:39.860Z,7.15
2023-02-28T20:40:07.420Z,6.88
2023-02-28T20:42:34.637Z,6.05
2023-02-28T20:45:01.817Z,5.78
2023-02-28T20:47:29.841Z,5.90
2023-02-28T20:49:56.980Z,5.68
2023-02-28T20:52:24.171Z,6.45
2023-02-28T20:54:51.368Z,5.95
2023-02-28T20:57:18.532Z,5.67
2023-02-28T20:59:45.823Z,6.90
2023-02-28T21:02:15.509Z,5.70
2023-02-28T21:04:42.683Z,6.30
2023-02-28T21:07:09.929Z,5.85
2023-02-28T21:09:37.273Z,6.32
2023-02-28T21:12:04.520Z,6.22
2023-02-28T21:14:32.251Z,5.72
2023-02-28T21:16:59.412Z,5.63
2023-02-28T21:19:26.609Z,6.05
2023-02-28T21:21:54.667Z,5.45
2023-02-28T21:24:22.389Z,5.87
2023-02-28T21:26:49.625Z,5.80
2023-02-28T21:29:16.903Z,5.55
2023-02-28T21:31:44.091Z,6.18
2023-02-28T21:34:11.360Z,5.47
2023-02-28T21:36:39.663Z,6.55
2023-02-28T21:39:23.329Z,6.43
2023-02-28T21:41:50.570Z,6.28
2023-02-28T21:44:22.672Z,6.25
2023-02-28T21:46:50.823Z,6.85
2023-02-28T21:49:18.128Z,7.20
2023-02-28T21:51:45.369Z,6.97
2023-02-28T21:54:12.673Z,6.60
2023-02-28T21:56:39.983Z,6.90
2023-02-28T21:59:09.348Z,7.35
2023-02-28T22:01:40.516Z,6.65
2023-02-28T22:04:08.459Z,6.90
2023-02-28T22:06:37.051Z,7.53
2023-02-28T22:09:06.023Z,6.90
2023-02-28T22:11:33.608Z,5.90
2023-02-28T22:14:00.944Z,5.72
2023-02-28T22:16:31.268Z,6.57
2023-02-28T22:19:00.441Z,6.57
2023-02-28T22:21:27.686Z,6.68
2023-02-28T22:23:54.878Z,7.13
2023-02-28T22:26:22.430Z,5.60
2023-02-28T22:28:49.933Z,6.03
2023-02-28T22:31:21.073Z,6.93
2023-02-28T22:33:48.645Z,6.00
2023-02-28T22:36:16.113Z,5.53
2023-02-28T22:38:43.557Z,4.65
2023-02-28T22:41:11.824Z,4.63
2023-02-28T22:43:39.603Z,5.70
2023-02-28T22:46:07.620Z,4.68
2023-02-28T22:48:35.280Z,5.07
2023-02-28T22:51:03.311Z,4.63
2023-02-28T22:53:31.341Z,4.22
2023-02-28T22:55:58.595Z,4.53
2023-02-28T22:58:25.877Z,4.10
2023-02-28T23:00:57.820Z,4.35
2023-02-28T23:03:25.352Z,3.88
2023-02-28T23:05:52.939Z,4.35
2023-02-28T23:08:23.405Z,4.80
2023-02-28T23:10:51.017Z,4.90
2023-02-28T23:13:20.587Z,4.38
2023-02-28T23:15:47.911Z,4.80
2023-02-28T23:18:15.641Z,4.63
2023-02-28T23:20:42.978Z,4.35
2023-02-28T23:23:10.275Z,5.10
2023-02-28T23:25:40.410Z,4.28
2023-02-28T23:28:08.343Z,4.68
2023-02-28T23:30:36.791Z,3.92
2023-02-28T23:33:05.678Z,4.95
2023-02-28T23:35:33.421Z,3.55
2023-02-28T23:38:00.709Z,4.10
2023-02-28T23:40:27.988Z,3.40
2023-02-28T23:42:55.181Z,3.63
2023-02-28T23:45:22.365Z,3.40
2023-02-28T23:47:49.520Z,3.53
2023-02-28T23:50:16.885Z,3.33
2023-02-28T23:52:44.017Z,3.75
2023-02-28T23:55:11.447Z,3.65
2023-02-28T23:57:38.751Z,3.65
